sensor_id;sensor_type;location;lat;lon;timestamp;P1;durP1;ratioP1;P2;durP2;ratioP2
12675;SDS011;63820;65.654;21.944;2023-10-08T00:01:53;0.30;;;0.30;;
12675;SDS011;63820;65.654;21.944;2023-10-08T00:04:39;0.30;;;0.30;;
12675;SDS011;63820;65.654;21.944;2023-10-08T00:07:24;0.23;;;0.20;;
12675;SDS011;63820;65.654;21.944;2023-10-08T00:10:08;0.30;;;0.30;;
12675;SDS011;63820;65.654;21.944;2023-10-08T00:12:53;0.20;;;0.20;;
12675;SDS011;63820;65.654;21.944;2023-10-08T00:15:37;0.37;;;0.30;;
12675;SDS011;63820;65.654;21.944;2023-10-08T00:18:21;0.33;;;0.30;;
12675;SDS011;63820;65.654;21.944;2023-10-08T00:21:06;0.30;;;0.30;;
12675;SDS011;63820;65.654;21.944;2023-10-08T00:23:56;0.30;;;0.30;;
12675;SDS011;63820;65.654;21.944;2023-10-08T00:26:43;0.30;;;0.30;;
12675;SDS011;63820;65.654;21.944;2023-10-08T00:29:27;0.30;;;0.30;;
12675;SDS011;63820;65.654;21.944;2023-10-08T00:32:15;0.30;;;0.30;;
12675;SDS011;63820;65.654;21.944;2023-10-08T00:35:00;0.30;;;0.30;;
12675;SDS011;63820;65.654;21.944;2023-10-08T00:37:44;0.57;;;0.40;;
12675;SDS011;63820;65.654;21.944;2023-10-08T00:40:47;1.23;;;0.40;;
12675;SDS011;63820;65.654;21.944;2023-10-08T00:43:34;0.30;;;0.30;;
12675;SDS011;63820;65.654;21.944;2023-10-08T00:46:19;0.60;;;0.30;;
12675;SDS011;63820;65.654;21.944;2023-10-08T00:49:07;0.43;;;0.30;;
12675;SDS011;63820;65.654;21.944;2023-10-08T00:52:22;0.30;;;0.30;;
12675;SDS011;63820;65.654;21.944;2023-10-08T00:55:24;0.20;;;0.20;;
12675;SDS011;63820;65.654;21.944;2023-10-08T00:58:12;0.20;;;0.20;;
12675;SDS011;63820;65.654;21.944;2023-10-08T01:01:07;0.30;;;0.30;;
12675;SDS011;63820;65.654;21.944;2023-10-08T01:03:54;0.27;;;0.27;;
12675;SDS011;63820;65.654;21.944;2023-10-08T01:06:39;0.20;;;0.20;;
12675;SDS011;63820;65.654;21.944;2023-10-08T01:09:23;0.80;;;0.30;;
12675;SDS011;63820;65.654;21.944;2023-10-08T01:12:14;1.20;;;0.47;;
12675;SDS011;63820;65.654;21.944;2023-10-08T01:15:05;0.50;;;0.37;;
12675;SDS011;63820;65.654;21.944;2023-10-08T01:18:07;0.57;;;0.40;;
12675;SDS011;63820;65.654;21.944;2023-10-08T01:20:57;0.33;;;0.30;;
12675;SDS011;63820;65.654;21.944;2023-10-08T01:23:51;0.30;;;0.30;;
12675;SDS011;63820;65.654;21.944;2023-10-08T01:26:38;0.43;;;0.30;;
12675;SDS011;63820;65.654;21.944;2023-10-08T01:29:22;0.33;;;0.30;;
12675;SDS011;63820;65.654;21.944;2023-10-08T01:32:08;0.47;;;0.30;;
12675;SDS011;63820;65.654;21.944;2023-10-08T01:34:54;0.93;;;0.40;;
12675;SDS011;63820;65.654;21.944;2023-10-08T01:37:39;0.40;;;0.30;;
12675;SDS011;63820;65.654;21.944;2023-10-08T01:40:23;0.57;;;0.40;;
12675;SDS011;63820;65.654;21.944;2023-10-08T01:43:07;0.60;;;0.40;;
12675;SDS011;63820;65.654;21.944;2023-10-08T01:45:52;0.40;;;0.40;;
12675;SDS011;63820;65.654;21.944;2023-10-08T01:48:36;0.40;;;0.40;;
12675;SDS011;63820;65.654;21.944;2023-10-08T01:51:21;0.93;;;0.40;;
12675;SDS011;63820;65.654;21.944;2023-10-08T01:54:09;0.20;;;0.20;;
12675;SDS011;63820;65.654;21.944;2023-10-08T01:56:57;0.30;;;0.30;;
12675;SDS011;63820;65.654;21.944;2023-10-08T01:59:41;0.20;;;0.20;;
12675;SDS011;63820;65.654;21.944;2023-10-08T02:02:26;0.60;;;0.27;;
12675;SDS011;63820;65.654;21.944;2023-10-08T02:05:10;0.30;;;0.30;;
12675;SDS011;63820;65.654;21.944;2023-10-08T02:07:58;1.23;;;0.30;;
12675;SDS011;63820;65.654;21.944;2023-10-08T02:10:42;0.40;;;0.30;;
12675;SDS011;63820;65.654;21.944;2023-10-08T02:13:31;0.37;;;0.37;;
12675;SDS011;63820;65.654;21.944;2023-10-08T02:16:18;0.50;;;0.40;;
12675;SDS011;63820;65.654;21.944;2023-10-08T02:19:02;1.10;;;0.43;;
12675;SDS011;63820;65.654;21.944;2023-10-08T02:21:47;0.40;;;0.30;;
12675;SDS011;63820;65.654;21.944;2023-10-08T02:24:31;0.60;;;0.27;;
12675;SDS011;63820;65.654;21.944;2023-10-08T02:27:16;0.53;;;0.23;;
12675;SDS011;63820;65.654;21.944;2023-10-08T02:30:00;0.30;;;0.30;;
12675;SDS011;63820;65.654;21.944;2023-10-08T02:32:47;0.30;;;0.30;;
12675;SDS011;63820;65.654;21.944;2023-10-08T02:35:33;0.20;;;0.20;;
12675;SDS011;63820;65.654;21.944;2023-10-08T02:38:17;0.70;;;0.40;;
12675;SDS011;63820;65.654;21.944;2023-10-08T02:41:05;0.33;;;0.33;;
12675;SDS011;63820;65.654;21.944;2023-10-08T02:43:50;0.30;;;0.30;;
12675;SDS011;63820;65.654;21.944;2023-10-08T02:46:34;0.20;;;0.20;;
12675;SDS011;63820;65.654;21.944;2023-10-08T02:49:21;0.20;;;0.20;;
12675;SDS011;63820;65.654;21.944;2023-10-08T02:52:06;0.47;;;0.47;;
12675;SDS011;63820;65.654;21.944;2023-10-08T02:54:52;0.93;;;0.30;;
12675;SDS011;63820;65.654;21.944;2023-10-08T02:57:36;0.30;;;0.30;;
12675;SDS011;63820;65.654;21.944;2023-10-08T03:00:21;0.30;;;0.30;;
12675;SDS011;63820;65.654;21.944;2023-10-08T03:03:05;0.50;;;0.37;;
12675;SDS011;63820;65.654;21.944;2023-10-08T03:05:59;0.27;;;0.27;;
12675;SDS011;63820;65.654;21.944;2023-10-08T03:08:43;0.20;;;0.20;;
12675;SDS011;63820;65.654;21.944;2023-10-08T03:11:27;0.30;;;0.30;;
12675;SDS011;63820;65.654;21.944;2023-10-08T03:14:11;0.40;;;0.40;;
12675;SDS011;63820;65.654;21.944;2023-10-08T03:16:58;0.50;;;0.30;;
12675;SDS011;63820;65.654;21.944;2023-10-08T03:19:51;0.20;;;0.20;;
12675;SDS011;63820;65.654;21.944;2023-10-08T03:22:36;0.20;;;0.20;;
12675;SDS011;63820;65.654;21.944;2023-10-08T03:25:21;0.87;;;0.47;;
12675;SDS011;63820;65.654;21.944;2023-10-08T03:28:08;0.30;;;0.30;;
12675;SDS011;63820;65.654;21.944;2023-10-08T03:30:52;0.70;;;0.20;;
12675;SDS011;63820;65.654;21.944;2023-10-08T03:33:46;0.50;;;0.30;;
12675;SDS011;63820;65.654;21.944;2023-10-08T03:36:35;0.30;;;0.30;;
12675;SDS011;63820;65.654;21.944;2023-10-08T03:39:27;0.30;;;0.30;;
12675;SDS011;63820;65.654;21.944;2023-10-08T03:42:32;0.20;;;0.20;;
12675;SDS011;63820;65.654;21.944;2023-10-08T03:45:24;0.20;;;0.20;;
12675;SDS011;63820;65.654;21.944;2023-10-08T03:48:27;0.40;;;0.30;;
12675;SDS011;63820;65.654;21.944;2023-10-08T03:51:17;0.30;;;0.30;;
12675;SDS011;63820;65.654;21.944;2023-10-08T03:54:05;1.20;;;0.30;;
12675;SDS011;63820;65.654;21.944;2023-10-08T03:56:53;0.30;;;0.30;;
12675;SDS011;63820;65.654;21.944;2023-10-08T03:59:37;0.40;;;0.30;;
12675;SDS011;63820;65.654;21.944;2023-10-08T04:02:24;0.30;;;0.30;;
12675;SDS011;63820;65.654;21.944;2023-10-08T04:05:23;0.50;;;0.40;;
12675;SDS011;63820;65.654;21.944;2023-10-08T04:08:16;0.40;;;0.40;;
12675;SDS011;63820;65.654;21.944;2023-10-08T04:11:24;0.23;;;0.23;;
12675;SDS011;63820;65.654;21.944;2023-10-08T04:14:24;0.30;;;0.30;;
12675;SDS011;63820;65.654;21.944;2023-10-08T04:17:09;0.40;;;0.30;;
12675;SDS011;63820;65.654;21.944;2023-10-08T04:19:54;0.30;;;0.30;;
12675;SDS011;63820;65.654;21.944;2023-10-08T04:22:38;0.40;;;0.40;;
12675;SDS011;63820;65.654;21.944;2023-10-08T04:25:22;0.50;;;0.50;;
12675;SDS011;63820;65.654;21.944;2023-10-08T04:28:06;0.60;;;0.30;;
12675;SDS011;63820;65.654;21.944;2023-10-08T04:30:50;0.40;;;0.40;;
12675;SDS011;63820;65.654;21.944;2023-10-08T04:33:34;0.40;;;0.30;;
12675;SDS011;63820;65.654;21.944;2023-10-08T04:36:18;0.43;;;0.40;;
12675;SDS011;63820;65.654;21.944;2023-10-08T04:39:06;0.30;;;0.30;;
12675;SDS011;63820;65.654;21.944;2023-10-08T04:41:56;0.33;;;0.30;;
12675;SDS011;63820;65.654;21.944;2023-10-08T04:44:44;0.60;;;0.40;;
12675;SDS011;63820;65.654;21.944;2023-10-08T04:47:28;0.40;;;0.30;;
12675;SDS011;63820;65.654;21.944;2023-10-08T04:50:15;0.30;;;0.30;;
12675;SDS011;63820;65.654;21.944;2023-10-08T04:53:01;0.37;;;0.37;;
12675;SDS011;63820;65.654;21.944;2023-10-08T04:55:51;0.37;;;0.37;;
12675;SDS011;63820;65.654;21.944;2023-10-08T04:58:35;0.50;;;0.40;;
12675;SDS011;63820;65.654;21.944;2023-10-08T05:01:24;0.40;;;0.40;;
12675;SDS011;63820;65.654;21.944;2023-10-08T05:04:24;0.63;;;0.40;;
12675;SDS011;63820;65.654;21.944;2023-10-08T05:07:10;0.60;;;0.37;;
12675;SDS011;63820;65.654;21.944;2023-10-08T05:10:01;2.60;;;0.40;;
12675;SDS011;63820;65.654;21.944;2023-10-08T05:12:54;0.40;;;0.40;;
12675;SDS011;63820;65.654;21.944;2023-10-08T05:15:58;0.73;;;0.43;;
12675;SDS011;63820;65.654;21.944;2023-10-08T05:19:01;0.43;;;0.43;;
12675;SDS011;63820;65.654;21.944;2023-10-08T05:22:08;1.37;;;0.40;;
12675;SDS011;63820;65.654;21.944;2023-10-08T05:25:10;0.30;;;0.30;;
12675;SDS011;63820;65.654;21.944;2023-10-08T05:28:00;0.30;;;0.30;;
12675;SDS011;63820;65.654;21.944;2023-10-08T05:30:53;0.43;;;0.30;;
12675;SDS011;63820;65.654;21.944;2023-10-08T05:33:56;0.90;;;0.30;;
12675;SDS011;63820;65.654;21.944;2023-10-08T05:37:00;0.70;;;0.40;;
12675;SDS011;63820;65.654;21.944;2023-10-08T05:39:50;0.30;;;0.30;;
12675;SDS011;63820;65.654;21.944;2023-10-08T05:42:39;0.83;;;0.40;;
12675;SDS011;63820;65.654;21.944;2023-10-08T05:45:30;0.83;;;0.30;;
12675;SDS011;63820;65.654;21.944;2023-10-08T05:48:15;0.50;;;0.30;;
12675;SDS011;63820;65.654;21.944;2023-10-08T05:51:06;0.30;;;0.30;;
12675;SDS011;63820;65.654;21.944;2023-10-08T05:53:57;0.60;;;0.40;;
12675;SDS011;63820;65.654;21.944;2023-10-08T05:56:41;0.43;;;0.40;;
12675;SDS011;63820;65.654;21.944;2023-10-08T05:59:48;0.50;;;0.40;;
12675;SDS011;63820;65.654;21.944;2023-10-08T06:02:42;0.70;;;0.47;;
12675;SDS011;63820;65.654;21.944;2023-10-08T06:05:29;0.53;;;0.53;;
12675;SDS011;63820;65.654;21.944;2023-10-08T06:08:16;0.80;;;0.70;;
12675;SDS011;63820;65.654;21.944;2023-10-08T06:11:20;1.00;;;0.80;;
12675;SDS011;63820;65.654;21.944;2023-10-08T06:14:24;1.07;;;0.70;;
12675;SDS011;63820;65.654;21.944;2023-10-08T06:17:26;0.77;;;0.70;;
12675;SDS011;63820;65.654;21.944;2023-10-08T06:20:38;0.67;;;0.60;;
12675;SDS011;63820;65.654;21.944;2023-10-08T06:23:27;1.30;;;0.53;;
12675;SDS011;63820;65.654;21.944;2023-10-08T06:26:13;0.50;;;0.50;;
12675;SDS011;63820;65.654;21.944;2023-10-08T06:29:04;0.70;;;0.40;;
12675;SDS011;63820;65.654;21.944;2023-10-08T06:32:02;0.40;;;0.40;;
12675;SDS011;63820;65.654;21.944;2023-10-08T06:34:46;0.50;;;0.50;;
12675;SDS011;63820;65.654;21.944;2023-10-08T06:37:30;1.20;;;0.30;;
12675;SDS011;63820;65.654;21.944;2023-10-08T06:40:17;0.60;;;0.50;;
12675;SDS011;63820;65.654;21.944;2023-10-08T06:43:21;0.40;;;0.40;;
12675;SDS011;63820;65.654;21.944;2023-10-08T06:46:06;0.30;;;0.30;;
12675;SDS011;63820;65.654;21.944;2023-10-08T06:48:56;0.47;;;0.37;;
12675;SDS011;63820;65.654;21.944;2023-10-08T06:51:40;0.63;;;0.40;;
12675;SDS011;63820;65.654;21.944;2023-10-08T06:54:27;0.60;;;0.50;;
12675;SDS011;63820;65.654;21.944;2023-10-08T06:57:14;1.10;;;0.60;;
12675;SDS011;63820;65.654;21.944;2023-10-08T06:59:58;0.37;;;0.37;;
12675;SDS011;63820;65.654;21.944;2023-10-08T07:02:42;0.50;;;0.40;;
12675;SDS011;63820;65.654;21.944;2023-10-08T07:05:26;0.67;;;0.37;;
12675;SDS011;63820;65.654;21.944;2023-10-08T07:08:12;0.30;;;0.30;;
12675;SDS011;63820;65.654;21.944;2023-10-08T07:11:00;0.43;;;0.43;;
12675;SDS011;63820;65.654;21.944;2023-10-08T07:13:50;0.37;;;0.33;;
12675;SDS011;63820;65.654;21.944;2023-10-08T07:16:35;0.87;;;0.30;;
12675;SDS011;63820;65.654;21.944;2023-10-08T07:19:19;0.43;;;0.40;;
12675;SDS011;63820;65.654;21.944;2023-10-08T07:22:03;0.50;;;0.33;;
12675;SDS011;63820;65.654;21.944;2023-10-08T07:25:01;0.30;;;0.30;;
12675;SDS011;63820;65.654;21.944;2023-10-08T07:27:48;0.40;;;0.40;;
12675;SDS011;63820;65.654;21.944;2023-10-08T07:30:36;0.70;;;0.33;;
12675;SDS011;63820;65.654;21.944;2023-10-08T07:33:27;0.30;;;0.30;;
12675;SDS011;63820;65.654;21.944;2023-10-08T07:36:20;0.90;;;0.50;;
12675;SDS011;63820;65.654;21.944;2023-10-08T07:39:03;3.90;;;0.40;;
12675;SDS011;63820;65.654;21.944;2023-10-08T07:41:53;0.40;;;0.40;;
12675;SDS011;63820;65.654;21.944;2023-10-08T07:44:38;0.53;;;0.30;;
12675;SDS011;63820;65.654;21.944;2023-10-08T07:47:22;0.50;;;0.30;;
12675;SDS011;63820;65.654;21.944;2023-10-08T07:50:07;0.47;;;0.40;;
12675;SDS011;63820;65.654;21.944;2023-10-08T07:52:55;0.40;;;0.40;;
12675;SDS011;63820;65.654;21.944;2023-10-08T07:55:40;0.83;;;0.23;;
12675;SDS011;63820;65.654;21.944;2023-10-08T07:58:24;0.30;;;0.30;;
12675;SDS011;63820;65.654;21.944;2023-10-08T08:01:09;0.33;;;0.30;;
12675;SDS011;63820;65.654;21.944;2023-10-08T08:03:53;0.30;;;0.30;;
12675;SDS011;63820;65.654;21.944;2023-10-08T08:06:37;0.33;;;0.27;;
12675;SDS011;63820;65.654;21.944;2023-10-08T08:09:21;0.52;;;0.30;;
12675;SDS011;63820;65.654;21.944;2023-10-08T08:12:07;0.35;;;0.25;;
12675;SDS011;63820;65.654;21.944;2023-10-08T08:14:57;0.20;;;0.20;;
12675;SDS011;63820;65.654;21.944;2023-10-08T08:17:42;0.60;;;0.20;;
12675;SDS011;63820;65.654;21.944;2023-10-08T08:20:26;0.20;;;0.20;;
12675;SDS011;63820;65.654;21.944;2023-10-08T08:23:22;0.20;;;0.17;;
12675;SDS011;63820;65.654;21.944;2023-10-08T08:26:07;0.60;;;0.20;;
12675;SDS011;63820;65.654;21.944;2023-10-08T08:28:58;0.20;;;0.20;;
12675;SDS011;63820;65.654;21.944;2023-10-08T08:31:45;0.52;;;0.20;;
12675;SDS011;63820;65.654;21.944;2023-10-08T08:34:30;0.32;;;0.30;;
12675;SDS011;63820;65.654;21.944;2023-10-08T08:37:15;0.17;;;0.17;;
12675;SDS011;63820;65.654;21.944;2023-10-08T08:39:59;0.20;;;0.20;;
12675;SDS011;63820;65.654;21.944;2023-10-08T08:42:47;0.20;;;0.20;;
12675;SDS011;63820;65.654;21.944;2023-10-08T08:45:33;0.38;;;0.30;;
12675;SDS011;63820;65.654;21.944;2023-10-08T08:48:19;0.47;;;0.22;;
12675;SDS011;63820;65.654;21.944;2023-10-08T08:51:04;0.20;;;0.20;;
12675;SDS011;63820;65.654;21.944;2023-10-08T08:53:50;0.50;;;0.30;;
12675;SDS011;63820;65.654;21.944;2023-10-08T08:56:37;0.30;;;0.30;;
12675;SDS011;63820;65.654;21.944;2023-10-08T08:59:22;0.43;;;0.23;;
12675;SDS011;63820;65.654;21.944;2023-10-08T09:02:07;0.40;;;0.30;;
12675;SDS011;63820;65.654;21.944;2023-10-08T09:04:55;0.17;;;0.17;;
12675;SDS011;63820;65.654;21.944;2023-10-08T09:10:37;0.22;;;0.20;;
12675;SDS011;63820;65.654;21.944;2023-10-08T09:13:22;0.30;;;0.30;;
12675;SDS011;63820;65.654;21.944;2023-10-08T09:16:08;0.20;;;0.20;;
12675;SDS011;63820;65.654;21.944;2023-10-08T09:18:56;0.38;;;0.20;;
12675;SDS011;63820;65.654;21.944;2023-10-08T09:21:40;0.20;;;0.20;;
12675;SDS011;63820;65.654;21.944;2023-10-08T09:24:24;0.25;;;0.25;;
12675;SDS011;63820;65.654;21.944;2023-10-08T09:27:11;0.45;;;0.20;;
12675;SDS011;63820;65.654;21.944;2023-10-08T09:30:03;0.65;;;0.40;;
12675;SDS011;63820;65.654;21.944;2023-10-08T09:32:52;0.40;;;0.28;;
12675;SDS011;63820;65.654;21.944;2023-10-08T09:35:36;0.20;;;0.20;;
12675;SDS011;63820;65.654;21.944;2023-10-08T09:38:20;1.48;;;0.20;;
12675;SDS011;63820;65.654;21.944;2023-10-08T09:41:07;0.22;;;0.20;;
12675;SDS011;63820;65.654;21.944;2023-10-08T09:43:52;0.15;;;0.15;;
12675;SDS011;63820;65.654;21.944;2023-10-08T09:46:37;0.43;;;0.20;;
12675;SDS011;63820;65.654;21.944;2023-10-08T09:49:26;0.35;;;0.30;;
12675;SDS011;63820;65.654;21.944;2023-10-08T09:52:17;0.20;;;0.20;;
12675;SDS011;63820;65.654;21.944;2023-10-08T09:55:09;0.47;;;0.20;;
12675;SDS011;63820;65.654;21.944;2023-10-08T09:57:56;0.77;;;0.30;;
12675;SDS011;63820;65.654;21.944;2023-10-08T10:00:40;0.30;;;0.20;;
12675;SDS011;63820;65.654;21.944;2023-10-08T10:03:28;0.22;;;0.10;;
12675;SDS011;63820;65.654;21.944;2023-10-08T10:06:13;0.20;;;0.20;;
12675;SDS011;63820;65.654;21.944;2023-10-08T10:08:59;0.30;;;0.20;;
12675;SDS011;63820;65.654;21.944;2023-10-08T10:11:50;0.20;;;0.20;;
12675;SDS011;63820;65.654;21.944;2023-10-08T10:14:43;0.65;;;0.28;;
12675;SDS011;63820;65.654;21.944;2023-10-08T10:17:29;0.75;;;0.20;;
12675;SDS011;63820;65.654;21.944;2023-10-08T10:20:13;0.20;;;0.20;;
12675;SDS011;63820;65.654;21.944;2023-10-08T10:22:57;0.30;;;0.30;;
12675;SDS011;63820;65.654;21.944;2023-10-08T10:25:43;0.50;;;0.30;;
12675;SDS011;63820;65.654;21.944;2023-10-08T10:28:31;0.40;;;0.20;;
12675;SDS011;63820;65.654;21.944;2023-10-08T10:31:19;0.22;;;0.20;;
12675;SDS011;63820;65.654;21.944;2023-10-08T10:34:07;0.22;;;0.22;;
12675;SDS011;63820;65.654;21.944;2023-10-08T10:36:52;0.28;;;0.28;;
12675;SDS011;63820;65.654;21.944;2023-10-08T10:39:40;0.40;;;0.20;;
12675;SDS011;63820;65.654;21.944;2023-10-08T10:42:25;1.35;;;0.30;;
12675;SDS011;63820;65.654;21.944;2023-10-08T10:45:13;0.68;;;0.20;;
12675;SDS011;63820;65.654;21.944;2023-10-08T10:48:18;0.20;;;0.20;;
12675;SDS011;63820;65.654;21.944;2023-10-08T10:51:05;0.20;;;0.20;;
12675;SDS011;63820;65.654;21.944;2023-10-08T10:53:49;0.20;;;0.20;;
12675;SDS011;63820;65.654;21.944;2023-10-08T10:56:52;0.43;;;0.38;;
12675;SDS011;63820;65.654;21.944;2023-10-08T11:00:02;0.20;;;0.20;;
12675;SDS011;63820;65.654;21.944;2023-10-08T11:03:02;0.10;;;0.10;;
12675;SDS011;63820;65.654;21.944;2023-10-08T11:05:57;0.35;;;0.10;;
12675;SDS011;63820;65.654;21.944;2023-10-08T11:08:43;0.10;;;0.10;;
12675;SDS011;63820;65.654;21.944;2023-10-08T11:11:30;0.30;;;0.30;;
12675;SDS011;63820;65.654;21.944;2023-10-08T11:14:15;0.20;;;0.20;;
12675;SDS011;63820;65.654;21.944;2023-10-08T11:17:09;0.28;;;0.20;;
12675;SDS011;63820;65.654;21.944;2023-10-08T11:19:54;0.10;;;0.10;;
12675;SDS011;63820;65.654;21.944;2023-10-08T11:22:41;0.17;;;0.17;;
12675;SDS011;63820;65.654;21.944;2023-10-08T11:25:28;0.60;;;0.30;;
12675;SDS011;63820;65.654;21.944;2023-10-08T11:28:14;0.20;;;0.20;;
12675;SDS011;63820;65.654;21.944;2023-10-08T11:30:58;0.40;;;0.30;;
12675;SDS011;63820;65.654;21.944;2023-10-08T11:33:51;0.20;;;0.20;;
12675;SDS011;63820;65.654;21.944;2023-10-08T11:36:38;0.30;;;0.30;;
12675;SDS011;63820;65.654;21.944;2023-10-08T11:39:39;0.95;;;0.20;;
12675;SDS011;63820;65.654;21.944;2023-10-08T11:42:29;0.52;;;0.30;;
12675;SDS011;63820;65.654;21.944;2023-10-08T11:45:16;0.25;;;0.20;;
12675;SDS011;63820;65.654;21.944;2023-10-08T11:48:21;0.90;;;0.20;;
12675;SDS011;63820;65.654;21.944;2023-10-08T11:51:09;0.30;;;0.30;;
12675;SDS011;63820;65.654;21.944;2023-10-08T11:53:56;1.23;;;0.60;;
12675;SDS011;63820;65.654;21.944;2023-10-08T11:56:40;0.75;;;0.40;;
12675;SDS011;63820;65.654;21.944;2023-10-08T11:59:25;0.30;;;0.30;;
12675;SDS011;63820;65.654;21.944;2023-10-08T12:02:09;0.45;;;0.40;;
12675;SDS011;63820;65.654;21.944;2023-10-08T12:05:00;0.40;;;0.30;;
12675;SDS011;63820;65.654;21.944;2023-10-08T12:07:47;0.30;;;0.30;;
12675;SDS011;63820;65.654;21.944;2023-10-08T12:10:32;0.20;;;0.20;;
12675;SDS011;63820;65.654;21.944;2023-10-08T12:13:18;0.20;;;0.20;;
12675;SDS011;63820;65.654;21.944;2023-10-08T12:16:13;1.00;;;0.20;;
12675;SDS011;63820;65.654;21.944;2023-10-08T12:19:07;0.63;;;0.22;;
12675;SDS011;63820;65.654;21.944;2023-10-08T12:22:00;0.25;;;0.20;;
12675;SDS011;63820;65.654;21.944;2023-10-08T12:24:46;0.30;;;0.20;;
12675;SDS011;63820;65.654;21.944;2023-10-08T12:27:30;0.30;;;0.30;;
12675;SDS011;63820;65.654;21.944;2023-10-08T12:30:14;0.45;;;0.28;;
12675;SDS011;63820;65.654;21.944;2023-10-08T12:32:58;0.77;;;0.22;;
12675;SDS011;63820;65.654;21.944;2023-10-08T12:35:43;0.52;;;0.30;;
12675;SDS011;63820;65.654;21.944;2023-10-08T12:38:33;0.40;;;0.30;;
12675;SDS011;63820;65.654;21.944;2023-10-08T12:41:17;0.40;;;0.30;;
12675;SDS011;63820;65.654;21.944;2023-10-08T12:44:03;0.30;;;0.30;;
12675;SDS011;63820;65.654;21.944;2023-10-08T12:46:51;0.30;;;0.30;;
12675;SDS011;63820;65.654;21.944;2023-10-08T12:49:35;0.30;;;0.30;;
12675;SDS011;63820;65.654;21.944;2023-10-08T12:52:18;0.20;;;0.20;;
12675;SDS011;63820;65.654;21.944;2023-10-08T12:55:07;0.47;;;0.30;;
12675;SDS011;63820;65.654;21.944;2023-10-08T12:57:51;0.50;;;0.20;;
12675;SDS011;63820;65.654;21.944;2023-10-08T13:00:39;0.20;;;0.20;;
12675;SDS011;63820;65.654;21.944;2023-10-08T13:03:26;0.35;;;0.20;;
12675;SDS011;63820;65.654;21.944;2023-10-08T13:06:15;0.22;;;0.22;;
12675;SDS011;63820;65.654;21.944;2023-10-08T13:09:06;0.20;;;0.20;;
12675;SDS011;63820;65.654;21.944;2023-10-08T13:11:56;0.30;;;0.20;;
12675;SDS011;63820;65.654;21.944;2023-10-08T13:14:43;1.45;;;0.30;;
12675;SDS011;63820;65.654;21.944;2023-10-08T13:17:28;0.35;;;0.30;;
12675;SDS011;63820;65.654;21.944;2023-10-08T13:20:13;0.40;;;0.40;;
12675;SDS011;63820;65.654;21.944;2023-10-08T13:22:58;0.30;;;0.30;;
12675;SDS011;63820;65.654;21.944;2023-10-08T13:25:43;0.30;;;0.30;;
12675;SDS011;63820;65.654;21.944;2023-10-08T13:28:29;0.20;;;0.20;;
12675;SDS011;63820;65.654;21.944;2023-10-08T13:31:14;0.50;;;0.38;;
12675;SDS011;63820;65.654;21.944;2023-10-08T13:34:00;0.30;;;0.30;;
12675;SDS011;63820;65.654;21.944;2023-10-08T13:36:46;1.27;;;0.30;;
12675;SDS011;63820;65.654;21.944;2023-10-08T13:39:33;0.20;;;0.20;;
12675;SDS011;63820;65.654;21.944;2023-10-08T13:42:18;1.73;;;0.43;;
12675;SDS011;63820;65.654;21.944;2023-10-08T13:45:04;0.40;;;0.40;;
12675;SDS011;63820;65.654;21.944;2023-10-08T13:47:52;0.40;;;0.40;;
12675;SDS011;63820;65.654;21.944;2023-10-08T13:50:36;0.50;;;0.30;;
12675;SDS011;63820;65.654;21.944;2023-10-08T13:53:20;0.47;;;0.47;;
12675;SDS011;63820;65.654;21.944;2023-10-08T13:56:04;1.00;;;0.50;;
12675;SDS011;63820;65.654;21.944;2023-10-08T13:58:48;1.50;;;0.60;;
12675;SDS011;63820;65.654;21.944;2023-10-08T14:01:35;1.37;;;0.47;;
12675;SDS011;63820;65.654;21.944;2023-10-08T14:04:19;0.30;;;0.30;;
12675;SDS011;63820;65.654;21.944;2023-10-08T14:07:03;1.30;;;0.40;;
12675;SDS011;63820;65.654;21.944;2023-10-08T14:09:47;1.03;;;0.30;;
12675;SDS011;63820;65.654;21.944;2023-10-08T14:12:34;0.57;;;0.33;;
12675;SDS011;63820;65.654;21.944;2023-10-08T14:15:18;0.40;;;0.40;;
12675;SDS011;63820;65.654;21.944;2023-10-08T14:18:03;0.30;;;0.30;;
12675;SDS011;63820;65.654;21.944;2023-10-08T14:20:52;0.50;;;0.50;;
12675;SDS011;63820;65.654;21.944;2023-10-08T14:23:37;0.47;;;0.30;;
12675;SDS011;63820;65.654;21.944;2023-10-08T14:26:22;0.87;;;0.20;;
12675;SDS011;63820;65.654;21.944;2023-10-08T14:29:07;1.77;;;0.30;;
12675;SDS011;63820;65.654;21.944;2023-10-08T14:31:54;0.50;;;0.40;;
12675;SDS011;63820;65.654;21.944;2023-10-08T14:34:40;0.97;;;0.30;;
12675;SDS011;63820;65.654;21.944;2023-10-08T14:37:27;0.77;;;0.37;;
12675;SDS011;63820;65.654;21.944;2023-10-08T14:40:30;0.50;;;0.30;;
12675;SDS011;63820;65.654;21.944;2023-10-08T14:43:32;0.70;;;0.30;;
12675;SDS011;63820;65.654;21.944;2023-10-08T14:46:18;0.53;;;0.43;;
12675;SDS011;63820;65.654;21.944;2023-10-08T14:49:03;1.17;;;0.40;;
12675;SDS011;63820;65.654;21.944;2023-10-08T14:51:52;1.10;;;0.37;;
12675;SDS011;63820;65.654;21.944;2023-10-08T14:54:38;0.20;;;0.20;;
12675;SDS011;63820;65.654;21.944;2023-10-08T14:57:22;0.50;;;0.30;;
12675;SDS011;63820;65.654;21.944;2023-10-08T15:00:10;0.40;;;0.30;;
12675;SDS011;63820;65.654;21.944;2023-10-08T15:02:55;0.37;;;0.37;;
12675;SDS011;63820;65.654;21.944;2023-10-08T15:05:39;2.47;;;0.47;;
12675;SDS011;63820;65.654;21.944;2023-10-08T15:08:24;0.87;;;0.37;;
12675;SDS011;63820;65.654;21.944;2023-10-08T15:11:10;0.50;;;0.30;;
12675;SDS011;63820;65.654;21.944;2023-10-08T15:13:54;0.40;;;0.40;;
12675;SDS011;63820;65.654;21.944;2023-10-08T15:16:38;0.47;;;0.37;;
12675;SDS011;63820;65.654;21.944;2023-10-08T15:19:22;0.93;;;0.30;;
12675;SDS011;63820;65.654;21.944;2023-10-08T15:22:07;0.70;;;0.40;;
12675;SDS011;63820;65.654;21.944;2023-10-08T15:24:51;1.77;;;0.40;;
12675;SDS011;63820;65.654;21.944;2023-10-08T15:27:34;0.40;;;0.40;;
12675;SDS011;63820;65.654;21.944;2023-10-08T15:30:19;0.87;;;0.53;;
12675;SDS011;63820;65.654;21.944;2023-10-08T15:33:04;6.23;;;5.37;;
12675;SDS011;63820;65.654;21.944;2023-10-08T15:35:50;3.80;;;2.43;;
12675;SDS011;63820;65.654;21.944;2023-10-08T15:38:34;3.23;;;1.80;;
12675;SDS011;63820;65.654;21.944;2023-10-08T15:41:18;1.20;;;1.03;;
12675;SDS011;63820;65.654;21.944;2023-10-08T15:44:04;1.40;;;0.80;;
12675;SDS011;63820;65.654;21.944;2023-10-08T15:46:51;1.33;;;0.73;;
12675;SDS011;63820;65.654;21.944;2023-10-08T15:49:35;1.40;;;1.00;;
12675;SDS011;63820;65.654;21.944;2023-10-08T15:52:19;1.47;;;0.60;;
12675;SDS011;63820;65.654;21.944;2023-10-08T15:55:04;1.73;;;0.80;;
12675;SDS011;63820;65.654;21.944;2023-10-08T15:57:49;2.00;;;0.50;;
12675;SDS011;63820;65.654;21.944;2023-10-08T16:00:34;0.87;;;0.80;;
12675;SDS011;63820;65.654;21.944;2023-10-08T16:03:19;1.27;;;0.87;;
12675;SDS011;63820;65.654;21.944;2023-10-08T16:06:03;1.73;;;0.80;;
12675;SDS011;63820;65.654;21.944;2023-10-08T16:08:48;2.70;;;1.00;;
12675;SDS011;63820;65.654;21.944;2023-10-08T16:11:32;3.93;;;1.10;;
12675;SDS011;63820;65.654;21.944;2023-10-08T16:14:18;4.20;;;1.03;;
12675;SDS011;63820;65.654;21.944;2023-10-08T16:17:04;1.50;;;0.87;;
12675;SDS011;63820;65.654;21.944;2023-10-08T16:19:51;1.83;;;0.80;;
12675;SDS011;63820;65.654;21.944;2023-10-08T16:22:35;3.90;;;1.10;;
12675;SDS011;63820;65.654;21.944;2023-10-08T16:25:19;3.03;;;0.87;;
12675;SDS011;63820;65.654;21.944;2023-10-08T16:28:03;2.83;;;1.00;;
12675;SDS011;63820;65.654;21.944;2023-10-08T16:30:48;4.90;;;2.20;;
12675;SDS011;63820;65.654;21.944;2023-10-08T16:33:37;4.93;;;1.80;;
12675;SDS011;63820;65.654;21.944;2023-10-08T16:36:21;5.27;;;1.87;;
12675;SDS011;63820;65.654;21.944;2023-10-08T16:39:05;6.83;;;2.43;;